Oceanside, California
Current Conditions -  °F | °C
As of 6:52 AM on Thursday 30 Oct 2014 (Local Time) from KOKB Reporting Station
Clear Clear  
Wind Chill: 54°   Ceiling: Unl
Heat Index: 54°   Visibility: 10mi
Dew Point: 49°   Wind: 5mph
Humidity: 83%   Direction: 30°NNE
Pressure: 29.97"   Gusts: NA
Location:  33.2°N, 117.38°W
Report Text: KOKB 301352Z AUTO 03004KT 10SM CLR 12/09 A2997 RMK AO2 SLP147 T01220094
Loading
Personal Weather Stations






























Interactive Weather Map
Tropical Storm Tracking
New forecast layout! Learn more

10-Day Weather Forecast

Advertisements
Track Severe Weather on mobile